X  Close Metar Aviation Weather Data     KBFM Mobile Downtown Airport
Temperature
73°F Temperature
46°F Dewpoint
38% Humidity



Wind
10 MPH
16 KM/H
4 M/S
9 KTS



20°
NNE
Current Conditions

Clear Clear
Pressure 1015.92 (hPa) - 30 (inHg)
Visibility 10 (mile) - 16.1 (km)
Airport
Airport-code KBFM

Location: Mobile Downtown Airport
Distance: 8 (mi)

Metar:
KBFM 301553Z 02009KT 10SM CLR 23/08 A3000 RMK AO2 SLP158 T02280083

Time: 30-09-2022 10:53 am CDT